The Official Home Page Of The Professional Rodeo Cowboys Association PRCA RAM WORLD STANDINGS
ProRodeoTv.Com



Official Gear Of The PRCA

PRCA Stock Statistics

SEARCH BY:
Stock Rodeo Contestant Stock Contractor

Paden Hurst

EVENT:
Unofficial results reflect placement at time of Web posting and can change.

SEASON BREAKDOWN

Season Attempts Qual Rides Re-rides Ride %
2018 85 81 0 95.29 %
2017 46 41 0 89.13 %
Totals 131 122 0 0.00 %

RODEO DETAIL

Date Location Rodeo SC Brand Ride Comments Stock Score Contestant Score
9/28/2018 Stephenville, TX 49th Annual Cowboy Capital Of The World PRCA Rodeo CR C31 70.00 19.50 / 19.00 13.50 / 18.00
9/22/2018 Springhill, LA Springhill PRCA Rodeo BF 493 79.00 19.00 / 19.00 21.00 / 20.00
9/21/2018 Texarkana, AR Four States Fair & Rodeo PC 675 72.00 18.00 / 18.00 17.00 / 19.00
9/20/2018 Amarillo, TX Amarillo Tri-State Fair And Rodeo SS 315 78.50 20.50 / 19.00 20.00 / 19.00
9/13/2018 Albuquerque, NM New Mexico State Fair & Rodeo PK 1608- 87.00 23.00 / 23.50 20.50 / 20.00
9/2/2018 Palestine, IL Pioneer City Rodeo PK 9824 83.00 22.00 / 17.00 21.00 / 23.00
8/31/2018 Elk City, OK Elk City Rodeo Of Champions BU 836 75.00 20.00 / 20.00 18.00 / 17.00
8/25/2018 Vinita, OK Will Rogers Memorial Rodeo RH 11 82.50 21.50 / 20.00 20.00 / 21.00
8/24/2018 Altus, OK Great Plains Stampede Rodeo AN 721 78.00 18.00 / 18.00 20.00 / 22.00
8/18/2018 Eureka, KS Eureka PRCA Rodeo UP 04 76.00 19.00 / 19.00 18.00 / 20.00
8/17/2018 Liberal, KS Seward County PRCA Rodeo RG 14 80.00 20.00 / 20.00 22.00 / 18.00
8/16/2018 Coffeyville, KS Inter-State Rodeo NF 55 73.50 17.50 / 17.00 20.00 / 19.00
8/11/2018 Lovington, NM Lea County Fair & PRCA Rodeo CR 55 79.50 19.00 / 18.50 21.00 / 21.00
8/10/2018 Lawton, OK Lawton Rangers Rodeo BU 2T6 71.50 19.50 / 18.50 14.50 / 19.00
8/9/2018 Sikeston, MO Sikeston Jaycee Bootheel Rodeo RH 454 78.00 19.00 / 19.00 20.00 / 20.00
8/8/2018 Crossett, AR Crossett Riding Club 70th Annual PRCA Rodeo CR 284 73.00 19.00 / 19.00 17.00 / 18.00
8/5/2018 Dodge City, KS Dodge City Roundup Rodeo HV 202 80.00 20.00 / 20.00 20.00 / 20.00
8/4/2018 Dodge City, KS Dodge City Roundup Rodeo HV 746 76.50 18.00 / 19.50 19.50 / 19.50
8/3/2018 Castle Rock, CO Douglas County Fair and Rodeo SM L8 81.50 20.00 / 19.00 21.50 / 21.00
8/2/2018 Abilene, KS Wild Bill Hickok Rodeo AN 057 74.00 20.00 / 17.50 18.00 / 18.50
8/1/2018 Sidney, IA Iowa s Championship Rodeo CC S8 77.00 18.00 / 18.00 20.00 / 21.00
7/28/2018 Cheyenne, WY Cheyenne Frontier Days JB 414 63.00 19.00 / 17.00 12.00 / 15.00
7/27/2018 Burlington, CO Kit Carson County Fair & Rodeo RM W02 74.50 18.00 / 18.50 18.00 / 20.00
7/27/2018 Cheyenne, WY Cheyenne Frontier Days SH 981 84.00 18.00 / 20.00 23.00 / 23.00
7/26/2018 Deadwood, SD Deadwood Days Of 76 Rodeo SU 223 78.00 18.00 / 18.00 22.00 / 20.00
Page of 4
Per Page
 
 
 
PRCA National Sponsors
MGM Grand Polaris Ranger American Quarter Horse Association Cinch Jeans
Copyright © 2018 Professional Rodeo Cowboys Association. All rights reserved. No portion of ProRodeo.com may be duplicated, redistributed or manipulated in any form. By accessing any information beyond this page, you agree to abide by the Terms of Use.
PRCA Wrangler National Finals Rodeo Wrangler ProRodeo Tour Finale Presented by Justin Boots Xtreme Bulls RAM National Circuit Finals Rodeo ProRodeo Gear ProRodeo Tour